createdAt,value
2023-04-20T00:00:31.020Z,98488.69
2023-04-20T00:02:58.843Z,98496.53
2023-04-20T00:05:27.213Z,98486.28
2023-04-20T00:07:54.913Z,98487.28
2023-04-20T00:10:24.046Z,98490.69
2023-04-20T00:12:51.747Z,98491.81
2023-04-20T00:15:19.342Z,98490.06
2023-04-20T00:17:48.687Z,98484.19
2023-04-20T00:20:16.210Z,98483.19
2023-04-20T00:22:43.656Z,98483.38
2023-04-20T00:25:11.412Z,98482.56
2023-04-20T00:27:39.396Z,98484.69
2023-04-20T00:30:07.913Z,98473.31
2023-04-20T00:32:35.445Z,98477.34
2023-04-20T00:35:02.996Z,98476.72
2023-04-20T00:37:31.076Z,98475.44
2023-04-20T00:39:58.557Z,98472.03
2023-04-20T00:42:26.178Z,98469.41
2023-04-20T00:44:53.709Z,98475.63
2023-04-20T00:47:22.908Z,98465.34
2023-04-20T00:49:51.946Z,98471.38
2023-04-20T00:52:22.097Z,98477.41
2023-04-20T00:54:49.838Z,98472.19
2023-04-20T00:57:24.023Z,98467.00
2023-04-20T00:59:51.854Z,98471.03
2023-04-20T01:02:19.482Z,98471.84
2023-04-20T01:04:48.000Z,98467.44
2023-04-20T01:07:15.770Z,98462.22
2023-04-20T01:09:43.524Z,98466.28
2023-04-20T01:12:11.775Z,98475.56
2023-04-20T01:14:39.414Z,98468.72
2023-04-20T01:17:07.058Z,98470.16
2023-04-20T01:19:34.526Z,98471.81
2023-04-20T01:22:03.156Z,98468.22
2023-04-20T01:24:30.801Z,98468.03
2023-04-20T01:27:01.857Z,98471.25
2023-04-20T01:29:29.880Z,98469.94
2023-04-20T01:31:57.441Z,98476.44
2023-04-20T01:34:25.961Z,98474.94
2023-04-20T01:36:54.485Z,98475.75
2023-04-20T01:39:22.222Z,98471.63
2023-04-20T01:41:50.013Z,98463.81
2023-04-20T01:44:18.312Z,98462.81
2023-04-20T01:46:46.058Z,98465.09
2023-04-20T01:49:14.012Z,98464.72
2023-04-20T01:51:41.501Z,98463.09
2023-04-20T01:54:09.091Z,98473.19
2023-04-20T01:56:37.062Z,98465.66
2023-04-20T01:59:04.912Z,98471.50
2023-04-20T02:01:34.542Z,98466.75
2023-04-20T02:04:02.206Z,98467.91
2023-04-20T02:06:29.832Z,98466.28
2023-04-20T02:08:57.644Z,98464.81
2023-04-20T02:11:25.178Z,98457.84
2023-04-20T02:13:52.673Z,98454.38
2023-04-20T02:16:21.869Z,98456.56
2023-04-20T02:18:49.627Z,98455.56
2023-04-20T02:21:17.208Z,98462.09
2023-04-20T02:23:44.732Z,98458.34
2023-04-20T02:26:12.361Z,98452.31
2023-04-20T02:28:41.161Z,98459.97
2023-04-20T02:31:09.004Z,98460.16
2023-04-20T02:33:36.679Z,98454.94
2023-04-20T02:36:04.814Z,98460.16
2023-04-20T02:38:33.282Z,98451.84
2023-04-20T02:41:01.200Z,98459.69
2023-04-20T02:43:29.223Z,98453.47
2023-04-20T02:45:56.896Z,98458.06
2023-04-20T02:48:24.706Z,98459.34
2023-04-20T02:50:58.102Z,98457.25
2023-04-20T02:53:27.706Z,98456.44
2023-04-20T02:56:21.695Z,98460.50
2023-04-20T02:58:55.400Z,98456.88
2023-04-20T03:01:28.045Z,98465.72
2023-04-20T03:04:04.768Z,98462.91
2023-04-20T03:06:38.669Z,98457.53
2023-04-20T03:09:09.038Z,98460.16
2023-04-20T03:11:50.261Z,98458.16
2023-04-20T03:14:32.337Z,98461.59
2023-04-20T03:17:00.019Z,98461.59
2023-04-20T03:19:27.537Z,98460.59
2023-04-20T03:21:55.259Z,98462.22
2023-04-20T03:24:23.981Z,98464.00
2023-04-20T03:26:52.423Z,98471.50
2023-04-20T03:29:28.392Z,98457.84
2023-04-20T03:31:56.041Z,98464.19
2023-04-20T03:34:23.904Z,98462.22
2023-04-20T03:36:51.700Z,98468.25
2023-04-20T03:39:19.354Z,98462.88
2023-04-20T03:41:47.052Z,98470.22
2023-04-20T03:44:15.306Z,98462.38
2023-04-20T03:46:42.863Z,98466.63
2023-04-20T03:49:10.408Z,98466.28
2023-04-20T03:51:40.011Z,98464.47
2023-04-20T03:54:07.597Z,98469.19
2023-04-20T03:56:35.422Z,98461.97
2023-04-20T03:59:03.113Z,98459.84
2023-04-20T04:01:31.901Z,98470.09
2023-04-20T04:03:59.821Z,98473.31
2023-04-20T04:06:27.594Z,98469.91
2023-04-20T04:08:55.599Z,98472.97
2023-04-20T04:11:25.540Z,98477.84
2023-04-20T04:13:53.407Z,98463.44
2023-04-20T04:16:21.061Z,98465.91
2023-04-20T04:18:50.167Z,98458.06
2023-04-20T04:21:17.758Z,98471.56
2023-04-20T04:23:52.047Z,98469.03
2023-04-20T04:26:31.857Z,98463.94
2023-04-20T04:29:00.066Z,98457.28
2023-04-20T04:31:29.218Z,98469.06
2023-04-20T04:34:03.789Z,98453.41
2023-04-20T04:36:39.891Z,98458.56
2023-04-20T04:39:11.000Z,98460.63
2023-04-20T04:41:42.126Z,98456.03
2023-04-20T04:44:21.297Z,98458.41
2023-04-20T04:46:49.445Z,98467.09
2023-04-20T04:49:17.789Z,98477.03
2023-04-20T04:51:45.615Z,98474.66
2023-04-20T04:54:13.061Z,98477.81
2023-04-20T04:56:40.980Z,98471.53
2023-04-20T04:59:08.492Z,98475.19
2023-04-20T05:01:36.219Z,98477.56
2023-04-20T05:04:03.904Z,98481.44
2023-04-20T05:06:32.637Z,98481.44
2023-04-20T05:09:00.104Z,98479.25
2023-04-20T05:11:27.564Z,98488.31
2023-04-20T05:13:55.072Z,98487.59
2023-04-20T05:16:22.749Z,98489.16
2023-04-20T05:18:50.261Z,98492.16
2023-04-20T05:21:17.718Z,98494.38
2023-04-20T05:23:45.232Z,98495.28
2023-04-20T05:26:12.696Z,98497.22
2023-04-20T05:28:40.356Z,98499.31
2023-04-20T05:31:08.098Z,98494.00
2023-04-20T05:33:35.705Z,98493.84
2023-04-20T05:36:03.418Z,98484.06
2023-04-20T05:38:30.971Z,98487.72
2023-04-20T05:40:58.573Z,98463.81
2023-04-20T05:43:26.332Z,98473.78
2023-04-20T05:45:53.925Z,98477.22
2023-04-20T05:48:21.519Z,98470.63
2023-04-20T05:50:49.013Z,98468.16
2023-04-20T05:53:16.731Z,98481.00
2023-04-20T05:55:44.154Z,98498.19
2023-04-20T05:58:18.030Z,98487.81
2023-04-20T06:00:46.213Z,98494.63
2023-04-20T06:03:13.840Z,98488.72
2023-04-20T06:05:41.629Z,98472.13
2023-04-20T06:08:09.369Z,98476.81
2023-04-20T06:10:36.888Z,98484.63
2023-04-20T06:13:04.485Z,98485.59
2023-04-20T06:15:32.132Z,98482.53
2023-04-20T06:18:00.821Z,98480.72
2023-04-20T06:20:28.798Z,98469.56
2023-04-20T06:22:56.649Z,98472.50
2023-04-20T06:25:24.262Z,98465.69
2023-04-20T06:27:52.769Z,98470.72
2023-04-20T06:30:20.965Z,98458.00
2023-04-20T06:32:48.476Z,98461.28
2023-04-20T06:35:16.211Z,98455.34
2023-04-20T06:37:43.784Z,98464.59
2023-04-20T06:40:11.858Z,98454.44
2023-04-20T06:42:40.165Z,98462.44
2023-04-20T06:45:09.074Z,98464.47
2023-04-20T06:47:36.855Z,98459.09
2023-04-20T06:50:09.866Z,98451.19
2023-04-20T06:52:39.419Z,98460.00
2023-04-20T06:55:08.038Z,98457.66
2023-04-20T06:57:37.270Z,98460.06
2023-04-20T07:00:08.918Z,98459.94
2023-04-20T07:02:48.005Z,98462.78
2023-04-20T07:05:17.442Z,98457.03
2023-04-20T07:07:45.878Z,98457.81
2023-04-20T07:10:16.159Z,98454.69
2023-04-20T07:12:44.648Z,98462.47
2023-04-20T07:15:12.827Z,98454.44
2023-04-20T07:17:40.882Z,98450.81
2023-04-20T07:20:09.410Z,98433.81
2023-04-20T07:22:38.706Z,98453.47
2023-04-20T07:25:09.232Z,98449.19
2023-04-20T07:27:41.102Z,98444.44
2023-04-20T07:30:10.763Z,98432.22
2023-04-20T07:32:40.891Z,98446.59
2023-04-20T07:35:09.731Z,98464.09
2023-04-20T07:37:37.393Z,98449.53
2023-04-20T07:40:06.794Z,98451.56
2023-04-20T07:42:37.102Z,98445.50
2023-04-20T07:45:06.991Z,98470.53
2023-04-20T07:47:35.403Z,98477.91
2023-04-20T07:50:07.266Z,98479.34
2023-04-20T07:52:34.725Z,98484.13
2023-04-20T07:55:02.448Z,98484.47
2023-04-20T07:57:30.074Z,98493.75
2023-04-20T07:59:57.784Z,98481.53
2023-04-20T08:02:25.649Z,98480.19
2023-04-20T08:04:53.624Z,98463.16
2023-04-20T08:07:21.130Z,98489.28
2023-04-20T08:09:48.618Z,98462.66
2023-04-20T08:12:16.223Z,98478.59
2023-04-20T08:14:43.882Z,98473.66
2023-04-20T08:17:11.455Z,98475.59
2023-04-20T08:19:40.002Z,98484.78
2023-04-20T08:22:08.631Z,98494.09
2023-04-20T08:24:36.256Z,98488.81
2023-04-20T08:27:03.789Z,98486.91
2023-04-20T08:29:31.328Z,98490.31
2023-04-20T08:31:58.883Z,98498.38
2023-04-20T08:34:26.364Z,98498.81
2023-04-20T08:36:53.858Z,98495.06
2023-04-20T08:39:24.370Z,98487.19
2023-04-20T08:41:55.434Z,98493.41
2023-04-20T08:44:24.464Z,98491.63
2023-04-20T08:46:52.259Z,98491.72
2023-04-20T08:49:21.613Z,98503.19
2023-04-20T08:51:49.652Z,98496.72
2023-04-20T08:54:17.453Z,98502.75
2023-04-20T08:56:46.642Z,98503.38
2023-04-20T08:59:15.634Z,98497.59
2023-04-20T09:01:44.769Z,98499.22
2023-04-20T09:04:27.243Z,98495.81
2023-04-20T09:06:56.594Z,98482.44
2023-04-20T09:09:27.652Z,98491.69
2023-04-20T09:12:10.305Z,98484.47
2023-04-20T09:14:45.843Z,98471.59
2023-04-20T09:17:16.152Z,98485.56
2023-04-20T09:19:53.788Z,98485.34
2023-04-20T09:22:31.998Z,98491.50
2023-04-20T09:24:59.979Z,98484.03
2023-04-20T09:27:27.955Z,98490.16
2023-04-20T09:30:04.171Z,98485.41
2023-04-20T09:32:32.982Z,98482.94
2023-04-20T09:35:00.605Z,98491.66
2023-04-20T09:37:28.198Z,98492.97
2023-04-20T09:40:00.860Z,98495.63
2023-04-20T09:42:30.162Z,98493.53
2023-04-20T09:44:58.263Z,98492.84
2023-04-20T09:47:27.414Z,98485.69
2023-04-20T09:49:56.183Z,98483.09
2023-04-20T09:52:26.399Z,98467.25
2023-04-20T09:54:55.452Z,98468.06
2023-04-20T09:57:25.643Z,98458.97
2023-04-20T09:59:54.648Z,98464.34
2023-04-20T10:02:22.262Z,98471.81
2023-04-20T10:05:01.867Z,98469.19
2023-04-20T10:07:33.260Z,98473.84
2023-04-20T10:10:12.710Z,98458.84
2023-04-20T10:13:01.441Z,98447.41
2023-04-20T10:15:40.932Z,98449.25
2023-04-20T10:18:25.092Z,98453.53
2023-04-20T10:21:07.110Z,98470.41
2023-04-20T10:23:34.857Z,98465.41
2023-04-20T10:26:03.735Z,98466.97
2023-04-20T10:28:42.992Z,98462.69
2023-04-20T10:31:16.988Z,98469.47
2023-04-20T10:33:56.174Z,98459.63
2023-04-20T10:36:31.073Z,98455.78
2023-04-20T10:39:00.520Z,98430.38
2023-04-20T10:41:28.174Z,98454.00
2023-04-20T10:43:55.725Z,98462.81
2023-04-20T10:46:24.837Z,98452.56
2023-04-20T10:48:53.920Z,98464.22
2023-04-20T10:51:22.566Z,98453.59
2023-04-20T10:54:06.006Z,98435.56
2023-04-20T10:56:47.326Z,98429.06
2023-04-20T10:59:21.617Z,98422.84
2023-04-20T11:01:51.418Z,98418.22
2023-04-20T11:04:19.417Z,98423.78
2023-04-20T11:06:48.435Z,98426.19
2023-04-20T11:09:28.408Z,98424.72
2023-04-20T11:12:04.042Z,98426.06
2023-04-20T11:15:03.115Z,98422.00
2023-04-20T11:17:39.146Z,98430.53
2023-04-20T11:20:13.337Z,98426.66
2023-04-20T11:22:43.016Z,98430.84
2023-04-20T11:25:12.716Z,98422.78
2023-04-20T11:27:42.148Z,98422.88
2023-04-20T11:30:10.356Z,98410.94
2023-04-20T11:32:38.311Z,98404.44
2023-04-20T11:35:10.915Z,98398.72
2023-04-20T11:37:51.363Z,98401.56
2023-04-20T11:40:19.833Z,98402.53
2023-04-20T11:42:47.331Z,98409.66
2023-04-20T11:45:15.798Z,98398.00
2023-04-20T11:47:43.695Z,98411.34
2023-04-20T11:50:11.699Z,98417.69
2023-04-20T11:52:39.086Z,98417.91
2023-04-20T11:55:07.441Z,98422.41
2023-04-20T11:57:35.016Z,98415.88
2023-04-20T12:00:04.269Z,98419.16
2023-04-20T12:02:41.338Z,98410.44
2023-04-20T12:05:09.816Z,98410.78
2023-04-20T12:07:37.507Z,98404.13
2023-04-20T12:10:06.826Z,98407.88
2023-04-20T12:12:34.314Z,98391.44
2023-04-20T12:15:01.963Z,98393.75
2023-04-20T12:17:29.532Z,98394.03
2023-04-20T12:19:57.971Z,98389.72
2023-04-20T12:22:25.504Z,98378.44
2023-04-20T12:24:52.967Z,98383.50
2023-04-20T12:27:20.490Z,98391.31
2023-04-20T12:29:48.011Z,98379.34
2023-04-20T12:32:15.600Z,98382.53
2023-04-20T12:34:43.149Z,98370.09
2023-04-20T12:37:11.125Z,98364.94
2023-04-20T12:39:38.498Z,98353.31
2023-04-20T12:42:06.001Z,98357.34
2023-04-20T12:44:33.557Z,98339.75
2023-04-20T12:47:01.196Z,98353.81
2023-04-20T12:49:28.702Z,98354.72
2023-04-20T12:51:56.309Z,98358.47
2023-04-20T12:54:23.772Z,98362.22
2023-04-20T12:56:51.637Z,98359.47
2023-04-20T12:59:19.085Z,98359.38
2023-04-20T13:01:46.464Z,98356.81
2023-04-20T13:04:16.129Z,98344.50
2023-04-20T13:06:43.966Z,98340.22
2023-04-20T13:09:11.568Z,98348.66
2023-04-20T13:11:39.162Z,98361.25
2023-04-20T13:14:06.765Z,98371.59
2023-04-20T13:16:34.268Z,98359.91
2023-04-20T13:19:01.872Z,98362.34
2023-04-20T13:21:29.294Z,98370.75
2023-04-20T13:23:57.116Z,98361.78
2023-04-20T13:26:24.775Z,98368.41
2023-04-20T13:28:52.594Z,98366.81
2023-04-20T13:31:20.064Z,98368.38
2023-04-20T13:33:47.596Z,98369.09
2023-04-20T13:36:15.436Z,98372.03
2023-04-20T13:38:43.355Z,98358.75
2023-04-20T13:41:10.958Z,98364.25
2023-04-20T13:43:38.483Z,98354.16
2023-04-20T13:46:06.417Z,98353.59
2023-04-20T13:48:34.081Z,98343.13
2023-04-20T13:51:01.468Z,98347.75
2023-04-20T13:53:28.982Z,98358.88
2023-04-20T13:55:57.770Z,98354.41
2023-04-20T13:58:28.793Z,98354.88
2023-04-20T14:00:56.408Z,98345.09
2023-04-20T14:03:26.145Z,98347.84
2023-04-20T14:05:54.072Z,98352.19
2023-04-20T14:08:23.437Z,98345.31
2023-04-20T14:10:51.172Z,98347.03
2023-04-20T14:13:18.863Z,98339.22
2023-04-20T14:15:46.316Z,98339.47
2023-04-20T14:18:13.992Z,98350.56
2023-04-20T14:20:41.615Z,98343.19
2023-04-20T14:23:09.770Z,98351.34
2023-04-20T14:25:37.437Z,98345.81
2023-04-20T14:28:05.182Z,98351.13
2023-04-20T14:30:32.700Z,98341.31
2023-04-20T14:33:01.111Z,98355.38
2023-04-20T14:35:28.886Z,98346.97
2023-04-20T14:37:56.353Z,98351.22
2023-04-20T14:40:23.894Z,98358.53
2023-04-20T14:42:51.483Z,98351.41
2023-04-20T14:45:19.314Z,98357.41
2023-04-20T14:47:46.889Z,98350.69
2023-04-20T14:50:14.362Z,98361.78
2023-04-20T14:52:41.863Z,98352.22
2023-04-20T14:55:09.594Z,98359.03
2023-04-20T14:57:37.091Z,98349.00
2023-04-20T15:00:06.444Z,98351.06
2023-04-20T15:02:34.222Z,98355.72
2023-04-20T15:05:01.978Z,98349.63
2023-04-20T15:07:29.842Z,98362.50
2023-04-20T15:09:57.354Z,98354.00
2023-04-20T15:12:24.799Z,98345.63
2023-04-20T15:14:52.329Z,98356.72
2023-04-20T15:17:19.976Z,98345.56
2023-04-20T15:19:47.445Z,98350.78
2023-04-20T15:22:15.496Z,98354.44
2023-04-20T15:24:43.000Z,98350.91
2023-04-20T15:27:11.340Z,98350.13
2023-04-20T15:29:38.768Z,98348.50
2023-04-20T15:32:06.583Z,98350.25
2023-04-20T15:34:34.117Z,98355.13
2023-04-20T15:37:01.794Z,98357.94
2023-04-20T15:39:29.222Z,98357.31
2023-04-20T15:41:57.781Z,98360.91
2023-04-20T15:44:26.047Z,98369.88
2023-04-20T15:46:53.420Z,98362.63
2023-04-20T15:49:21.048Z,98366.75
2023-04-20T15:51:48.678Z,98369.16
2023-04-20T15:54:16.430Z,98367.03
2023-04-20T15:56:44.123Z,98356.69
2023-04-20T15:59:11.604Z,98363.84
2023-04-20T16:01:39.255Z,98360.44
2023-04-20T16:04:07.305Z,98356.00
2023-04-20T16:06:37.017Z,98356.31
2023-04-20T16:09:04.567Z,98360.63
2023-04-20T16:11:32.072Z,98357.44
2023-04-20T16:13:59.754Z,98356.09
2023-04-20T16:16:27.430Z,98360.34
2023-04-20T16:18:55.471Z,98360.78
2023-04-20T16:21:23.443Z,98360.41
2023-04-20T16:23:55.275Z,98360.03
2023-04-20T16:26:25.646Z,98364.09
2023-04-20T16:28:54.226Z,98363.72
2023-04-20T16:31:21.768Z,98355.84
2023-04-20T16:33:49.290Z,98364.94
2023-04-20T16:36:16.816Z,98354.63
2023-04-20T16:38:44.839Z,98358.09
2023-04-20T16:41:12.382Z,98372.06
2023-04-20T16:43:41.037Z,98372.31
2023-04-20T16:46:13.425Z,98367.03
2023-04-20T16:48:40.902Z,98364.66
2023-04-20T16:51:08.601Z,98377.56
2023-04-20T16:53:36.105Z,98374.53
2023-04-20T16:56:03.635Z,98377.78
2023-04-20T16:58:31.501Z,98379.16
2023-04-20T17:00:59.017Z,98387.78
2023-04-20T17:03:26.811Z,98388.97
2023-04-20T17:05:54.497Z,98382.28
2023-04-20T17:08:22.272Z,98384.66
2023-04-20T17:10:49.759Z,98386.97
2023-04-20T17:13:17.521Z,98389.59
2023-04-20T17:15:46.278Z,98387.31
2023-04-20T17:18:13.781Z,98394.91
2023-04-20T17:20:42.103Z,98402.75
2023-04-20T17:23:09.591Z,98392.00
2023-04-20T17:25:37.213Z,98397.00
2023-04-20T17:28:05.003Z,98391.13
2023-04-20T17:30:32.543Z,98399.88
2023-04-20T17:33:00.769Z,98393.81
2023-04-20T17:35:28.332Z,98401.16
2023-04-20T17:37:55.884Z,98397.50
2023-04-20T17:40:23.406Z,98395.84
2023-04-20T17:42:51.012Z,98394.78
2023-04-20T17:45:18.684Z,98394.34
2023-04-20T17:47:46.668Z,98395.13
2023-04-20T17:50:16.480Z,98397.69
2023-04-20T17:52:44.009Z,98400.66
2023-04-20T17:55:12.040Z,98408.69
2023-04-20T17:57:39.907Z,98406.09
2023-04-20T18:00:11.528Z,98417.72
2023-04-20T18:02:42.393Z,98405.63
2023-04-20T18:05:10.562Z,98407.63
2023-04-20T18:07:38.102Z,98408.19
2023-04-20T18:10:06.423Z,98416.84
2023-04-20T18:12:33.990Z,98417.66
2023-04-20T18:15:01.716Z,98423.88
2023-04-20T18:17:29.367Z,98415.03
2023-04-20T18:19:56.920Z,98419.84
2023-04-20T18:22:24.397Z,98420.75
2023-04-20T18:24:51.993Z,98426.19
2023-04-20T18:27:19.545Z,98427.34
2023-04-20T18:29:47.197Z,98435.59
2023-04-20T18:32:16.449Z,98438.19
2023-04-20T18:34:44.234Z,98445.44
2023-04-20T18:37:14.922Z,98437.88
2023-04-20T18:39:42.398Z,98446.81
2023-04-20T18:42:10.207Z,98443.94
2023-04-20T18:44:37.747Z,98441.72
2023-04-20T18:47:05.468Z,98444.88
2023-04-20T18:49:34.847Z,98451.09
2023-04-20T18:52:02.859Z,98443.59
2023-04-20T18:54:30.373Z,98453.78
2023-04-20T18:56:58.370Z,98452.69
2023-04-20T18:59:26.084Z,98453.59
2023-04-20T19:01:53.650Z,98451.72
2023-04-20T19:04:21.440Z,98448.19
2023-04-20T19:06:49.409Z,98449.56
2023-04-20T19:09:17.013Z,98452.91
2023-04-20T19:11:44.522Z,98447.75
2023-04-20T19:14:12.305Z,98451.06
2023-04-20T19:16:40.235Z,98451.41
2023-04-20T19:19:08.076Z,98449.47
2023-04-20T19:21:35.667Z,98461.34
2023-04-20T19:24:03.259Z,98460.34
2023-04-20T19:26:30.784Z,98463.66
2023-04-20T19:28:59.991Z,98467.00
2023-04-20T19:31:32.258Z,98461.34
2023-04-20T19:33:59.908Z,98470.97
2023-04-20T19:36:27.401Z,98468.38
2023-04-20T19:38:54.826Z,98464.28
2023-04-20T19:41:22.390Z,98463.47
2023-04-20T19:43:49.837Z,98471.31
2023-04-20T19:46:17.421Z,98470.50
2023-04-20T19:48:45.416Z,98474.91
2023-04-20T19:51:12.884Z,98469.50
2023-04-20T19:53:40.458Z,98465.63
2023-04-20T19:56:08.142Z,98464.72
2023-04-20T19:58:35.761Z,98472.28
2023-04-20T20:01:04.641Z,98473.78
2023-04-20T20:03:32.301Z,98472.22
2023-04-20T20:06:00.834Z,98472.13
2023-04-20T20:08:28.473Z,98471.41
2023-04-20T20:10:56.207Z,98472.09
2023-04-20T20:13:23.787Z,98465.78
2023-04-20T20:15:51.773Z,98471.69
2023-04-20T20:18:20.547Z,98476.63
2023-04-20T20:20:49.314Z,98471.91
2023-04-20T20:23:18.228Z,98470.44
2023-04-20T20:25:46.222Z,98466.41
2023-04-20T20:28:14.356Z,98472.13
2023-04-20T20:30:45.119Z,98470.22
2023-04-20T20:33:12.978Z,98464.88
2023-04-20T20:35:42.543Z,98473.00
2023-04-20T20:38:10.937Z,98473.53
2023-04-20T20:40:40.006Z,98470.63
2023-04-20T20:43:08.586Z,98475.19
2023-04-20T20:45:37.251Z,98472.59
2023-04-20T20:48:05.095Z,98477.00
2023-04-20T20:50:32.752Z,98470.00
2023-04-20T20:53:00.397Z,98472.59
2023-04-20T20:55:27.846Z,98474.22
2023-04-20T20:57:55.401Z,98478.63
2023-04-20T21:00:22.952Z,98474.38
2023-04-20T21:02:50.850Z,98467.38
2023-04-20T21:05:19.013Z,98469.34
2023-04-20T21:07:46.473Z,98468.38
2023-04-20T21:10:15.212Z,98470.97
2023-04-20T21:12:42.697Z,98464.97
2023-04-20T21:15:11.216Z,98465.47
2023-04-20T21:17:38.612Z,98466.63
2023-04-20T21:20:09.130Z,98472.47
2023-04-20T21:22:36.700Z,98469.06
2023-04-20T21:25:04.625Z,98469.56
2023-04-20T21:27:32.116Z,98470.72
2023-04-20T21:29:59.576Z,98477.88
2023-04-20T21:32:27.034Z,98473.66
2023-04-20T21:34:54.713Z,98474.66
2023-04-20T21:37:22.193Z,98477.41
2023-04-20T21:39:51.113Z,98476.78
2023-04-20T21:42:18.661Z,98482.78
2023-04-20T21:44:46.240Z,98481.19
2023-04-20T21:47:13.676Z,98488.19
2023-04-20T21:49:41.067Z,98477.75
2023-04-20T21:52:08.573Z,98472.53
2023-04-20T21:54:36.102Z,98484.75
2023-04-20T21:57:03.869Z,98487.06
2023-04-20T21:59:31.403Z,98469.50
2023-04-20T22:01:59.228Z,98474.22
2023-04-20T22:04:27.456Z,98477.81
2023-04-20T22:06:55.556Z,98479.63
2023-04-20T22:09:23.288Z,98476.22
2023-04-20T22:11:50.751Z,98469.53
2023-04-20T22:14:18.172Z,98473.63
2023-04-20T22:16:46.107Z,98478.38
2023-04-20T22:19:13.702Z,98468.28
2023-04-20T22:21:43.166Z,98472.19
2023-04-20T22:24:10.592Z,98464.56
2023-04-20T22:26:38.282Z,98476.13
2023-04-20T22:29:05.792Z,98472.22
2023-04-20T22:31:33.265Z,98484.13
2023-04-20T22:34:00.732Z,98483.16
2023-04-20T22:36:28.227Z,98482.03
2023-04-20T22:38:55.866Z,98482.34
2023-04-20T22:41:23.391Z,98483.03
2023-04-20T22:43:50.810Z,98487.59
2023-04-20T22:46:18.344Z,98479.94
2023-04-20T22:48:48.547Z,98480.91
2023-04-20T22:51:17.360Z,98479.59
2023-04-20T22:53:45.122Z,98483.69
2023-04-20T22:56:14.298Z,98482.72
2023-04-20T22:58:41.974Z,98478.81
2023-04-20T23:01:09.456Z,98479.16
2023-04-20T23:03:37.307Z,98484.53
2023-04-20T23:06:05.433Z,98477.03
2023-04-20T23:08:33.540Z,98473.78
2023-04-20T23:11:01.138Z,98469.25
2023-04-20T23:13:28.689Z,98482.88
2023-04-20T23:15:56.205Z,98474.13
2023-04-20T23:18:23.982Z,98468.41
2023-04-20T23:20:51.414Z,98476.56
2023-04-20T23:23:18.916Z,98473.31
2023-04-20T23:25:46.368Z,98465.34
2023-04-20T23:28:13.944Z,98464.53
2023-04-20T23:30:41.459Z,98461.94
2023-04-20T23:33:09.009Z,98461.94
2023-04-20T23:35:39.310Z,98463.88
2023-04-20T23:38:06.796Z,98463.06
2023-04-20T23:40:34.462Z,98457.88
2023-04-20T23:43:01.904Z,98454.47
2023-04-20T23:45:29.329Z,98454.94
2023-04-20T23:47:56.823Z,98453.16
2023-04-20T23:50:25.490Z,98448.44
2023-04-20T23:52:52.979Z,98454.63
2023-04-20T23:55:20.505Z,98444.53
2023-04-20T23:57:48.059Z,98449.28
